Time;durP1;ratioP1;P1;durP2;ratioP2;P2;SDS_P1;SDS_P2;PMS_P1;PMS_P2;Temp;Humidity;BMP_temperature;BMP_pressure;BME280_temperature;BME280_humidity;BME280_pressure;Samples;Min_cycle;Max_cycle;Signal;HPM_P1;HPM_P2
2023/04/28 00:01:13;;;;;;;7.20;2.92;;;11.70;93.00;;;;;;5009048;28;20687;-64
2023/04/28 00:03:39;;;;;;;7.88;3.58;;;11.70;93.30;;;;;;5006324;28;20084;-64
2023/04/28 00:06:05;;;;;;;9.88;3.10;;;11.60;93.40;;;;;;5001383;28;20062;-64
2023/04/28 00:08:31;;;;;;;6.88;3.40;;;11.60;93.90;;;;;;5004948;28;20073;-64
2023/04/28 00:10:56;;;;;;;6.80;2.90;;;11.60;95.10;;;;;;5002016;28;20034;-64
2023/04/28 00:13:22;;;;;;;8.90;2.80;;;11.50;94.40;;;;;;5005159;28;20026;-63
2023/04/28 00:15:49;;;;;;;8.32;3.00;;;11.50;96.10;;;;;;5005879;28;20096;-64
2023/04/28 00:18:15;;;;;;;8.48;2.88;;;11.50;95.20;;;;;;5003545;28;20037;-65
2023/04/28 00:20:40;;;;;;;6.93;2.75;;;11.40;95.10;;;;;;4998071;28;20033;-63
2023/04/28 00:23:06;;;;;;;5.82;2.88;;;11.50;95.10;;;;;;5006546;28;20396;-65
2023/04/28 00:25:32;;;;;;;7.03;2.85;;;11.50;95.90;;;;;;5006291;28;20100;-64
2023/04/28 00:27:57;;;;;;;8.45;3.20;;;11.50;95.70;;;;;;5006913;28;20018;-65
2023/04/28 00:30:24;;;;;;;5.28;2.53;;;11.40;95.10;;;;;;5006375;28;20037;-64
2023/04/28 00:32:49;;;;;;;5.18;3.10;;;11.40;96.40;;;;;;5003982;28;20054;-64
2023/04/28 00:35:15;;;;;;;5.25;3.03;;;11.40;95.70;;;;;;4990901;28;20466;-65
2023/04/28 00:37:40;;;;;;;4.35;2.58;;;11.40;94.90;;;;;;4995055;28;20093;-65
2023/04/28 00:40:07;;;;;;;12.75;2.88;;;11.40;95.60;;;;;;4997283;28;20076;-63
2023/04/28 00:42:32;;;;;;;5.78;2.45;;;11.30;96.20;;;;;;4993107;28;20053;-64
2023/04/28 00:45:03;;;;;;;6.60;2.42;;;11.40;95.00;;;;;;4998381;28;20026;-64
2023/04/28 00:47:28;;;;;;;6.22;3.05;;;11.40;95.20;;;;;;5002049;28;20029;-64
2023/04/28 00:49:54;;;;;;;6.45;2.75;;;11.40;96.40;;;;;;4996499;28;20101;-64
2023/04/28 00:52:20;;;;;;;6.38;2.75;;;11.30;96.40;;;;;;4993203;28;20116;-64
2023/04/28 00:54:46;;;;;;;8.40;2.60;;;11.40;96.20;;;;;;4996402;28;20106;-63
2023/04/28 00:57:12;;;;;;;9.88;2.78;;;11.30;95.40;;;;;;4987453;28;20389;-63
2023/04/28 00:59:38;;;;;;;8.43;2.85;;;11.30;95.60;;;;;;5005283;28;20037;-64
2023/04/28 01:02:06;;;;;;;6.32;2.80;;;11.30;95.90;;;;;;5011431;28;20101;-64
2023/04/28 01:04:32;;;;;;;6.43;3.42;;;11.30;96.00;;;;;;5003538;28;20037;-63
2023/04/28 01:07:00;;;;;;;5.60;2.92;;;11.30;96.40;;;;;;5005362;28;20034;-63
2023/04/28 01:09:26;;;;;;;7.95;2.95;;;11.30;98.00;;;;;;5008929;28;20022;-64
2023/04/28 01:11:51;;;;;;;5.07;2.47;;;11.20;97.50;;;;;;5007001;28;20057;-64
2023/04/28 01:14:17;;;;;;;6.63;3.25;;;11.20;97.30;;;;;;5003359;28;20113;-64
2023/04/28 01:16:43;;;;;;;7.70;2.40;;;11.20;97.30;;;;;;5005121;28;20403;-64
2023/04/28 01:19:18;;;;;;;5.38;2.45;;;11.20;97.20;;;;;;5009291;28;20041;-65
2023/04/28 01:21:44;;;;;;;6.53;2.80;;;11.20;96.60;;;;;;5003876;28;20058;-63
2023/04/28 01:24:10;;;;;;;6.30;2.70;;;11.20;98.80;;;;;;5005829;28;20484;-65
2023/04/28 01:26:35;;;;;;;7.07;2.53;;;11.10;97.90;;;;;;5001394;28;20044;-63
2023/04/28 01:29:01;;;;;;;5.90;2.70;;;11.10;98.90;;;;;;5006750;28;20056;-64
2023/04/28 01:31:26;;;;;;;6.90;2.88;;;11.10;99.90;;;;;;5010660;28;20034;-64
2023/04/28 01:33:52;;;;;;;6.88;3.00;;;11.00;99.90;;;;;;5005584;28;20025;-63
2023/04/28 01:36:17;;;;;;;7.68;2.78;;;11.00;99.90;;;;;;5009293;28;20040;-63
2023/04/28 01:38:43;;;;;;;9.27;2.70;;;11.00;99.90;;;;;;5006776;28;20509;-64
2023/04/28 01:41:08;;;;;;;8.60;2.83;;;11.00;99.90;;;;;;5009395;28;20040;-64
2023/04/28 01:43:34;;;;;;;6.50;2.90;;;10.90;99.90;;;;;;5008426;28;20037;-64
2023/04/28 01:45:59;;;;;;;6.57;2.90;;;10.90;99.90;;;;;;5002247;28;20061;-63
2023/04/28 01:48:25;;;;;;;4.60;2.72;;;10.80;99.90;;;;;;5002705;28;20022;-65
2023/04/28 01:50:50;;;;;;;5.65;3.63;;;10.70;99.90;;;;;;5004729;28;20097;-64
2023/04/28 01:53:19;;;;;;;7.05;3.40;;;10.70;99.90;;;;;;4997480;28;20041;-65
2023/04/28 01:55:45;;;;;;;5.10;2.70;;;10.70;99.90;;;;;;5003353;28;20400;-64
2023/04/28 01:58:11;;;;;;;6.30;3.20;;;10.70;99.90;;;;;;4994856;28;20046;-63
2023/04/28 02:00:37;;;;;;;6.78;3.25;;;10.70;99.90;;;;;;5006139;28;20041;-62
2023/04/28 02:03:02;;;;;;;8.07;3.38;;;10.60;99.90;;;;;;5011756;28;20026;-63
2023/04/28 02:05:28;;;;;;;7.60;2.80;;;10.60;99.90;;;;;;5011228;28;20476;-62
2023/04/28 02:07:53;;;;;;;8.13;2.92;;;10.60;99.90;;;;;;5007290;28;20030;-63
2023/04/28 02:10:19;;;;;;;6.85;3.28;;;10.60;99.90;;;;;;5005224;28;20049;-64
2023/04/28 02:12:45;;;;;;;8.52;3.53;;;10.50;99.90;;;;;;4991786;28;20045;-63
2023/04/28 02:15:10;;;;;;;11.70;3.47;;;10.50;99.90;;;;;;4985948;28;20130;-63
2023/04/28 02:17:36;;;;;;;7.15;3.53;;;10.40;99.90;;;;;;5010221;28;20034;-63
2023/04/28 02:20:01;;;;;;;8.07;3.53;;;10.40;99.90;;;;;;5010717;28;20455;-60
2023/04/28 02:22:27;;;;;;;9.07;3.47;;;10.40;99.90;;;;;;5004301;28;20038;-63
2023/04/28 02:24:52;;;;;;;8.30;3.88;;;10.30;99.90;;;;;;5008129;28;20436;-63
2023/04/28 02:27:18;;;;;;;6.25;3.05;;;10.30;99.90;;;;;;5011355;28;20394;-63
2023/04/28 02:29:44;;;;;;;7.43;3.42;;;10.30;99.90;;;;;;5009098;28;20033;-64
2023/04/28 02:32:09;;;;;;;10.32;3.85;;;10.30;99.90;;;;;;5006415;28;20022;-62
2023/04/28 02:34:35;;;;;;;7.10;4.55;;;10.30;99.90;;;;;;5004417;28;20392;-64
2023/04/28 02:37:01;;;;;;;10.18;4.18;;;10.20;99.90;;;;;;5000162;28;20060;-64
2023/04/28 02:39:28;;;;;;;17.55;4.30;;;10.10;99.90;;;;;;5010351;28;20030;-63
2023/04/28 02:41:55;;;;;;;5.35;3.63;;;10.20;99.90;;;;;;5000219;28;20029;-64
2023/04/28 02:44:21;;;;;;;16.65;4.10;;;10.10;99.90;;;;;;5002248;28;20101;-64
2023/04/28 02:46:46;;;;;;;10.98;4.10;;;10.20;99.90;;;;;;5003752;28;20118;-64
2023/04/28 02:49:12;;;;;;;9.13;3.80;;;10.20;99.90;;;;;;5004313;28;20496;-66
2023/04/28 02:51:38;;;;;;;6.45;3.75;;;10.20;99.90;;;;;;4994975;28;20036;-65
2023/04/28 02:54:04;;;;;;;7.95;3.90;;;10.30;99.90;;;;;;4994165;28;20522;-65
2023/04/28 02:56:29;;;;;;;10.40;3.65;;;10.20;99.90;;;;;;5004721;28;20030;-65
2023/04/28 02:58:55;;;;;;;7.82;3.83;;;10.20;99.90;;;;;;4994776;28;20143;-66
2023/04/28 03:01:21;;;;;;;11.55;4.20;;;10.10;99.90;;;;;;5011667;28;20025;-65
2023/04/28 03:03:47;;;;;;;7.70;4.32;;;10.10;99.90;;;;;;5008556;28;20041;-65
2023/04/28 03:06:12;;;;;;;8.10;4.25;;;10.10;99.90;;;;;;5011949;28;20080;-65
2023/04/28 03:08:38;;;;;;;6.93;3.50;;;10.10;99.90;;;;;;5006344;28;20064;-66
2023/04/28 03:11:03;;;;;;;10.07;4.43;;;10.10;99.90;;;;;;5011711;28;20018;-65
2023/04/28 03:13:29;;;;;;;11.18;4.43;;;10.10;99.90;;;;;;5009589;28;20056;-65
2023/04/28 03:15:55;;;;;;;10.98;4.25;;;10.00;99.90;;;;;;5008298;28;20490;-63
2023/04/28 03:18:21;;;;;;;6.82;3.83;;;10.00;99.90;;;;;;5010313;28;20109;-66
2023/04/28 03:20:47;;;;;;;8.55;4.35;;;9.90;99.90;;;;;;5010790;28;20061;-65
2023/04/28 03:23:12;;;;;;;6.68;4.32;;;9.90;99.90;;;;;;5006236;28;20046;-66
2023/04/28 03:25:38;;;;;;;9.88;4.07;;;9.80;99.90;;;;;;5009010;28;20034;-65
2023/04/28 03:28:04;;;;;;;6.80;4.28;;;9.80;99.90;;;;;;5000815;28;20026;-65
2023/04/28 03:30:30;;;;;;;10.25;5.07;;;9.80;99.90;;;;;;5001086;28;20165;-66
2023/04/28 03:32:56;;;;;;;9.35;5.07;;;9.80;99.90;;;;;;4998421;28;20167;-66
2023/04/28 03:35:21;;;;;;;6.97;4.15;;;9.80;99.90;;;;;;4988518;28;20053;-64
2023/04/28 03:37:47;;;;;;;12.73;5.25;;;9.70;99.90;;;;;;5008247;28;20414;-64
2023/04/28 03:40:13;;;;;;;16.50;4.80;;;9.80;99.90;;;;;;5006181;28;20045;-65
2023/04/28 03:42:38;;;;;;;9.20;4.93;;;9.80;99.90;;;;;;5007804;28;20033;-65
2023/04/28 03:45:04;;;;;;;9.38;4.85;;;9.80;99.90;;;;;;4995310;28;20026;-63
2023/04/28 03:47:29;;;;;;;9.32;4.45;;;9.80;99.90;;;;;;4997668;28;20036;-64
2023/04/28 03:49:57;;;;;;;7.35;4.53;;;9.80;99.90;;;;;;4997636;28;20034;-63
2023/04/28 03:52:23;;;;;;;12.57;4.50;;;9.80;99.90;;;;;;5002290;28;20120;-65
2023/04/28 03:54:49;;;;;;;9.10;4.68;;;9.80;99.90;;;;;;5001553;28;20117;-65
2023/04/28 03:57:14;;;;;;;11.70;4.97;;;9.80;99.90;;;;;;4973154;28;20125;-65
2023/04/28 03:59:40;;;;;;;8.18;5.30;;;9.80;99.90;;;;;;4999234;28;20038;-63
2023/04/28 04:02:06;;;;;;;10.50;5.07;;;9.80;99.90;;;;;;5001661;28;20108;-62
2023/04/28 04:04:31;;;;;;;12.57;4.38;;;9.80;99.90;;;;;;5005926;28;20077;-65
2023/04/28 04:06:58;;;;;;;8.85;4.78;;;9.80;99.90;;;;;;5008180;28;20025;-65
2023/04/28 04:09:23;;;;;;;9.45;5.20;;;9.80;99.90;;;;;;5000911;28;20033;-65
2023/04/28 04:11:49;;;;;;;8.32;4.70;;;9.80;99.90;;;;;;5001216;28;20017;-65
2023/04/28 04:14:15;;;;;;;10.75;4.43;;;9.70;99.90;;;;;;5003752;28;20058;-65
2023/04/28 04:16:41;;;;;;;11.02;4.80;;;9.70;99.90;;;;;;5008690;28;20080;-66
2023/04/28 04:19:06;;;;;;;10.75;5.70;;;9.70;99.90;;;;;;5006424;28;20499;-66
2023/04/28 04:21:32;;;;;;;7.07;4.47;;;9.70;99.90;;;;;;5009615;28;20101;-64
2023/04/28 04:23:57;;;;;;;11.63;5.10;;;9.70;99.90;;;;;;5005225;28;20113;-66
2023/04/28 04:26:23;;;;;;;9.10;5.35;;;9.70;99.90;;;;;;5003079;28;20068;-65
2023/04/28 04:28:49;;;;;;;10.02;4.82;;;9.70;99.90;;;;;;5007987;28;20030;-65
2023/04/28 04:31:14;;;;;;;10.18;4.97;;;9.70;99.90;;;;;;5001615;28;20084;-65
2023/04/28 04:33:40;;;;;;;9.32;4.60;;;9.70;99.90;;;;;;4998793;28;20038;-65
2023/04/28 04:36:06;;;;;;;7.95;4.53;;;9.70;99.90;;;;;;4992147;28;20113;-66
2023/04/28 04:38:31;;;;;;;7.47;3.95;;;9.70;99.90;;;;;;4991434;28;20033;-65
2023/04/28 04:40:57;;;;;;;9.32;5.15;;;9.80;99.90;;;;;;4991018;28;20026;-64
2023/04/28 04:43:23;;;;;;;6.35;4.13;;;9.80;99.90;;;;;;4997572;28;20092;-65
2023/04/28 04:45:48;;;;;;;11.35;4.45;;;9.80;99.90;;;;;;4996410;28;20399;-66
2023/04/28 04:48:14;;;;;;;10.50;4.43;;;9.80;99.90;;;;;;4996802;28;20022;-63
2023/04/28 04:50:41;;;;;;;8.45;5.05;;;9.90;99.90;;;;;;5000088;28;20034;-64
2023/04/28 04:53:06;;;;;;;7.15;5.05;;;9.90;99.90;;;;;;5004657;28;20033;-64
2023/04/28 04:55:32;;;;;;;11.75;4.95;;;9.90;99.90;;;;;;5005747;28;20029;-65
2023/04/28 04:57:58;;;;;;;6.57;4.32;;;9.90;99.90;;;;;;4996414;28;20045;-65
2023/04/28 05:00:24;;;;;;;8.18;4.63;;;9.90;99.90;;;;;;5008429;28;20030;-65
2023/04/28 05:02:49;;;;;;;11.02;4.93;;;9.90;99.90;;;;;;5008470;28;20040;-65
2023/04/28 05:05:15;;;;;;;7.22;4.35;;;9.90;99.90;;;;;;4999931;28;20450;-66
2023/04/28 05:07:40;;;;;;;6.03;3.97;;;9.90;99.90;;;;;;4999535;28;20033;-65
2023/04/28 05:10:06;;;;;;;10.98;4.00;;;10.00;99.90;;;;;;5008478;28;20030;-65
2023/04/28 05:12:32;;;;;;;7.15;4.35;;;9.90;99.90;;;;;;5006482;28;20048;-65
2023/04/28 05:14:57;;;;;;;8.05;4.32;;;10.00;99.90;;;;;;4999158;28;20030;-66
2023/04/28 05:17:23;;;;;;;7.00;4.40;;;10.00;99.90;;;;;;5010532;28;20026;-63
2023/04/28 05:19:49;;;;;;;9.68;4.82;;;9.90;99.90;;;;;;5008095;28;20041;-63
2023/04/28 05:22:15;;;;;;;8.20;4.18;;;10.00;99.90;;;;;;5003725;28;20035;-64
2023/04/28 05:24:40;;;;;;;7.22;4.75;;;10.00;99.90;;;;;;5002851;28;20030;-64
2023/04/28 05:27:06;;;;;;;12.30;4.78;;;10.00;99.90;;;;;;5006123;28;20835;-66
2023/04/28 05:29:32;;;;;;;10.90;4.68;;;10.10;99.90;;;;;;5000674;28;20026;-64
2023/04/28 05:31:57;;;;;;;9.95;4.80;;;10.10;99.90;;;;;;5000758;28;20054;-63
2023/04/28 05:34:23;;;;;;;8.63;3.92;;;10.10;99.90;;;;;;5009207;28;20030;-64
2023/04/28 05:36:49;;;;;;;10.55;4.57;;;10.00;99.90;;;;;;5007678;28;20102;-65
2023/04/28 05:39:14;;;;;;;6.20;4.18;;;10.10;99.90;;;;;;5008855;28;20033;-63
2023/04/28 05:41:40;;;;;;;8.60;4.40;;;10.10;99.90;;;;;;5004273;28;20026;-64
2023/04/28 05:44:05;;;;;;;8.25;4.40;;;10.10;99.90;;;;;;5002808;28;20037;-63
2023/04/28 05:46:31;;;;;;;8.88;4.78;;;10.10;99.90;;;;;;5003753;28;20079;-66
2023/04/28 05:48:57;;;;;;;9.95;4.57;;;10.10;99.90;;;;;;5010596;28;20083;-66
2023/04/28 05:51:22;;;;;;;8.55;5.57;;;10.10;99.90;;;;;;4997530;28;20396;-66
2023/04/28 05:53:48;;;;;;;8.38;4.38;;;10.10;99.90;;;;;;5006744;28;20502;-64
2023/04/28 05:56:15;;;;;;;11.43;4.13;;;10.20;99.90;;;;;;5005760;28;20030;-64
2023/04/28 05:58:43;;;;;;;8.50;4.80;;;10.10;99.90;;;;;;4988000;28;20051;-62
2023/04/28 06:01:08;;;;;;;8.93;4.65;;;10.10;99.90;;;;;;5001360;28;20033;-64
2023/04/28 06:03:34;;;;;;;7.70;5.05;;;10.10;99.90;;;;;;5005111;28;20044;-63
2023/04/28 06:06:00;;;;;;;10.70;4.43;;;10.20;99.90;;;;;;4996105;28;20385;-64
2023/04/28 06:08:25;;;;;;;11.82;4.75;;;10.20;99.90;;;;;;5001129;28;20027;-63
2023/04/28 06:10:51;;;;;;;6.85;4.35;;;10.20;99.90;;;;;;5003783;28;20030;-63
2023/04/28 06:13:17;;;;;;;8.45;4.50;;;10.30;99.90;;;;;;4995955;28;20034;-64
2023/04/28 06:15:43;;;;;;;9.98;4.75;;;10.30;99.90;;;;;;5004944;28;20419;-66
2023/04/28 06:18:08;;;;;;;10.93;5.03;;;10.40;99.90;;;;;;5006154;28;20034;-64
2023/04/28 06:20:34;;;;;;;10.13;4.78;;;10.40;99.90;;;;;;5007454;28;20035;-64
2023/04/28 06:23:02;;;;;;;8.80;4.13;;;10.40;99.90;;;;;;5009612;28;20487;-63
2023/04/28 06:25:28;;;;;;;8.57;4.40;;;10.40;99.90;;;;;;4993651;28;20037;-65
2023/04/28 06:27:53;;;;;;;9.23;4.97;;;10.40;99.90;;;;;;5004951;28;20026;-65
2023/04/28 06:30:22;;;;;;;11.75;4.55;;;10.30;99.90;;;;;;5008268;28;20037;-65
2023/04/28 06:32:48;;;;;;;10.63;5.45;;;10.40;99.90;;;;;;5007700;28;20025;-66
2023/04/28 06:35:14;;;;;;;9.73;5.15;;;10.40;99.90;;;;;;5008703;28;20026;-63
2023/04/28 06:37:40;;;;;;;15.55;5.80;;;10.50;99.90;;;;;;5006605;28;20034;-64
2023/04/28 06:40:07;;;;;;;7.47;4.88;;;10.50;99.90;;;;;;5009753;28;20052;-64
2023/04/28 06:42:33;;;;;;;12.27;4.97;;;10.60;99.90;;;;;;5009318;28;20038;-66
2023/04/28 06:44:58;;;;;;;10.35;4.78;;;10.60;99.90;;;;;;5007755;28;20095;-66
2023/04/28 06:47:24;;;;;;;8.05;4.65;;;10.60;99.90;;;;;;5009981;28;20044;-66
2023/04/28 06:49:50;;;;;;;10.68;5.63;;;10.70;99.90;;;;;;4997209;28;20029;-65
2023/04/28 06:52:16;;;;;;;11.30;4.25;;;10.70;99.90;;;;;;4980543;28;20023;-66
2023/04/28 06:54:41;;;;;;;8.40;4.03;;;10.80;99.90;;;;;;5009900;28;20022;-64
2023/04/28 06:57:07;;;;;;;10.00;4.60;;;11.00;99.90;;;;;;5002524;28;20539;-66
2023/04/28 06:59:33;;;;;;;10.48;4.47;;;11.10;99.90;;;;;;4988546;28;20060;-66
2023/04/28 07:01:59;;;;;;;8.15;4.93;;;11.20;99.90;;;;;;5002528;28;20112;-65
2023/04/28 07:04:25;;;;;;;11.98;4.03;;;11.30;99.90;;;;;;4991842;28;20553;-66
2023/04/28 07:06:51;;;;;;;10.07;5.22;;;11.30;99.90;;;;;;4993179;28;20029;-65
2023/04/28 07:09:16;;;;;;;7.90;4.53;;;11.40;99.90;;;;;;4991855;28;20037;-65
2023/04/28 07:11:43;;;;;;;7.50;4.70;;;11.40;99.90;;;;;;4995106;28;20603;-65
2023/04/28 07:14:09;;;;;;;8.90;4.57;;;11.40;99.90;;;;;;4995546;28;20034;-64
2023/04/28 07:16:35;;;;;;;8.20;4.35;;;11.50;99.90;;;;;;4993158;28;20037;-66
2023/04/28 07:19:01;;;;;;;9.40;4.72;;;11.50;99.90;;;;;;4996160;28;20060;-67
2023/04/28 07:21:27;;;;;;;5.32;3.67;;;11.60;99.90;;;;;;4989883;28;22293;-65
2023/04/28 07:23:55;;;;;;;9.90;4.50;;;11.80;99.90;;;;;;4995050;28;20087;-65
2023/04/28 07:26:22;;;;;;;11.00;4.90;;;11.90;99.90;;;;;;4991493;28;20020;-66
2023/04/28 07:28:47;;;;;;;8.77;4.55;;;12.00;99.90;;;;;;4992077;28;20023;-65
2023/04/28 07:31:13;;;;;;;8.32;4.22;;;12.00;99.90;;;;;;4991249;28;20041;-66
2023/04/28 07:33:39;;;;;;;7.40;4.18;;;12.10;99.90;;;;;;4990779;28;20552;-64
2023/04/28 07:36:05;;;;;;;10.35;4.78;;;12.20;99.90;;;;;;4992674;28;20030;-65
2023/04/28 07:38:36;;;;;;;7.03;4.03;;;12.30;99.90;;;;;;5000889;28;20091;-65
2023/04/28 07:41:02;;;;;;;6.38;4.22;;;12.30;99.90;;;;;;5003621;28;20025;-66
2023/04/28 07:43:28;;;;;;;7.95;4.10;;;12.30;99.90;;;;;;5001488;28;20126;-65
2023/04/28 07:45:54;;;;;;;7.75;4.45;;;12.40;99.90;;;;;;4996239;28;20022;-65
2023/04/28 07:48:20;;;;;;;7.70;4.50;;;12.40;99.90;;;;;;5007046;28;20649;-66
2023/04/28 07:50:46;;;;;;;6.75;4.63;;;12.40;99.90;;;;;;5001813;28;20041;-66
2023/04/28 07:53:11;;;;;;;7.95;4.05;;;12.40;99.90;;;;;;4996068;28;20063;-65
2023/04/28 07:55:37;;;;;;;10.85;4.30;;;12.40;99.90;;;;;;5007021;28;20384;-65
2023/04/28 07:58:03;;;;;;;6.20;4.10;;;12.40;99.90;;;;;;4993273;28;20161;-62
2023/04/28 08:00:28;;;;;;;6.10;3.95;;;12.40;99.90;;;;;;4976893;28;20041;-64
2023/04/28 08:02:55;;;;;;;9.95;4.90;;;12.50;99.90;;;;;;4993241;28;20511;-65
2023/04/28 08:05:21;;;;;;;5.13;3.60;;;12.60;99.90;;;;;;4990765;28;20025;-63
2023/04/28 08:07:47;;;;;;;8.70;4.80;;;12.80;99.90;;;;;;4994121;28;20026;-65
2023/04/28 08:10:12;;;;;;;10.68;5.15;;;12.80;99.90;;;;;;4994676;28;20053;-66
2023/04/28 08:12:39;;;;;;;6.50;4.32;;;12.70;99.90;;;;;;4993552;28;20058;-64
2023/04/28 08:15:06;;;;;;;12.38;4.18;;;12.90;99.90;;;;;;4995386;28;20036;-66
2023/04/28 08:17:31;;;;;;;8.10;4.50;;;12.80;99.90;;;;;;4993718;28;20045;-65
2023/04/28 08:19:57;;;;;;;10.07;4.95;;;13.00;99.90;;;;;;5004022;28;20034;-63
2023/04/28 08:22:23;;;;;;;7.68;4.53;;;13.00;99.90;;;;;;5004390;28;20025;-64
2023/04/28 08:24:48;;;;;;;8.20;3.90;;;13.00;99.90;;;;;;5006451;28;20029;-63
2023/04/28 08:27:14;;;;;;;7.32;4.22;;;13.20;99.90;;;;;;5004386;28;20045;-63
2023/04/28 08:29:39;;;;;;;8.40;4.55;;;13.40;99.90;;;;;;5000915;28;22078;-63
2023/04/28 08:32:05;;;;;;;7.75;4.15;;;13.70;99.90;;;;;;5008805;28;20034;-64
2023/04/28 08:34:31;;;;;;;6.57;3.95;;;14.20;99.90;;;;;;4999659;28;20034;-63
2023/04/28 08:36:57;;;;;;;6.97;4.50;;;15.00;99.90;;;;;;5007302;28;20033;-65
2023/04/28 08:39:25;;;;;;;7.20;4.53;;;15.60;99.90;;;;;;4998085;28;20396;-63
2023/04/28 08:41:51;;;;;;;4.13;3.50;;;16.00;99.90;;;;;;5005770;28;20034;-64
2023/04/28 08:44:17;;;;;;;6.22;3.88;;;16.30;99.90;;;;;;4979624;28;20038;-64
2023/04/28 08:46:44;;;;;;;8.00;3.55;;;17.30;99.90;;;;;;5009135;28;20120;-65
2023/04/28 08:49:16;;;;;;;7.60;3.90;;;17.30;99.90;;;;;;5001394;28;20368;-63
2023/04/28 08:51:56;;;;;;;6.47;3.83;;;17.30;99.90;;;;;;4997609;28;20060;-65
2023/04/28 08:54:24;;;;;;;8.30;4.38;;;16.90;99.90;;;;;;4998183;28;20092;-64
2023/04/28 08:56:50;;;;;;;6.28;3.60;;;16.80;99.90;;;;;;5002867;28;20033;-65
2023/04/28 08:59:17;;;;;;;10.68;4.00;;;16.70;99.90;;;;;;4984766;28;20061;-64
2023/04/28 09:01:43;;;;;;;5.35;3.33;;;16.90;99.90;;;;;;5007677;28;20041;-66
2023/04/28 09:04:09;;;;;;;6.85;3.65;;;16.80;99.90;;;;;;5010872;28;20018;-64
2023/04/28 09:06:37;;;;;;;4.85;3.67;;;16.60;99.90;;;;;;5009258;28;20461;-66
2023/04/28 09:09:23;;;;;;;7.85;4.07;;;16.70;99.90;;;;;;5006745;28;20018;-65
2023/04/28 09:11:59;;;;;;;5.53;3.47;;;16.90;99.90;;;;;;5000755;28;20118;-65
2023/04/28 09:14:34;;;;;;;6.28;3.45;;;16.70;99.90;;;;;;5001967;28;20033;-66
2023/04/28 09:17:26;;;;;;;6.45;3.40;;;16.80;99.90;;;;;;5004415;28;20084;-66
2023/04/28 09:19:52;;;;;;;8.82;3.95;;;16.70;99.90;;;;;;4990741;28;20125;-65
2023/04/28 09:22:27;;;;;;;9.23;3.83;;;16.70;99.90;;;;;;5002919;28;20547;-65
2023/04/28 09:24:54;;;;;;;6.05;3.47;;;16.40;99.90;;;;;;5005377;28;20112;-66
2023/04/28 09:27:27;;;;;;;8.07;3.15;;;16.40;99.90;;;;;;5004174;28;20034;-65
2023/04/28 09:29:53;;;;;;;9.10;4.18;;;16.20;99.90;;;;;;5002082;28;20023;-66
2023/04/28 09:32:20;;;;;;;5.18;3.70;;;16.20;99.90;;;;;;5003251;28;20081;-65
2023/04/28 09:34:55;;;;;;;6.20;3.83;;;16.00;99.90;;;;;;5000606;28;20043;-66
2023/04/28 09:37:29;;;;;;;7.53;4.35;;;15.60;99.90;;;;;;5001837;28;20030;-65
2023/04/28 09:39:56;;;;;;;8.00;3.47;;;15.60;99.90;;;;;;5011721;28;20042;-66
2023/04/28 09:42:33;;;;;;;5.35;3.50;;;15.60;99.90;;;;;;5003143;28;20034;-64
2023/04/28 09:45:01;;;;;;;7.00;4.00;;;15.60;99.90;;;;;;4994297;28;20041;-65
2023/04/28 09:47:28;;;;;;;8.75;3.92;;;15.50;99.90;;;;;;5008584;28;20025;-65
2023/04/28 09:49:59;;;;;;;18.17;11.35;;;15.20;99.90;;;;;;5003461;28;20096;-65
2023/04/28 09:52:25;;;;;;;9.15;4.35;;;14.80;99.90;;;;;;5006817;28;20029;-65
2023/04/28 09:54:52;;;;;;;8.52;4.40;;;14.70;99.90;;;;;;5003474;28;20487;-64
2023/04/28 09:57:20;;;;;;;7.60;4.95;;;14.80;99.90;;;;;;4999415;28;20032;-64
2023/04/28 09:59:50;;;;;;;8.25;4.68;;;14.60;99.90;;;;;;4991136;28;20061;-64
2023/04/28 10:02:17;;;;;;;5.15;3.88;;;14.50;99.90;;;;;;4997655;28;20044;-65
2023/04/28 10:04:48;;;;;;;8.15;4.60;;;14.60;99.90;;;;;;5003840;28;20103;-65
2023/04/28 10:07:15;;;;;;;7.35;4.55;;;14.50;99.90;;;;;;4998639;28;20110;-65
2023/04/28 10:09:51;;;;;;;6.07;4.47;;;14.70;99.90;;;;;;5008197;28;20538;-64
2023/04/28 10:12:17;;;;;;;6.43;4.63;;;14.60;99.90;;;;;;4997044;28;20049;-65
2023/04/28 10:14:44;;;;;;;5.93;4.38;;;14.60;99.90;;;;;;5006031;28;20026;-65
2023/04/28 10:17:12;;;;;;;10.75;5.13;;;14.60;99.90;;;;;;5000758;28;20105;-63
2023/04/28 10:19:39;;;;;;;7.85;4.93;;;14.60;99.90;;;;;;5004741;28;20022;-64
2023/04/28 10:22:14;;;;;;;7.07;4.75;;;14.80;99.90;;;;;;5007354;28;20491;-65
2023/04/28 10:25:11;;;;;;;7.13;4.10;;;14.70;99.90;;;;;;5007492;28;20052;-65
2023/04/28 10:27:45;;;;;;;7.03;4.75;;;14.90;99.90;;;;;;4957123;28;20121;-65
2023/04/28 10:30:22;;;;;;;8.75;4.72;;;15.00;99.90;;;;;;5006001;28;20029;-64
2023/04/28 10:33:12;;;;;;;9.95;5.13;;;15.10;99.90;;;;;;5008098;28;20034;-66
2023/04/28 10:35:39;;;;;;;7.65;4.40;;;15.30;99.90;;;;;;5009969;28;20112;-65
2023/04/28 10:38:12;;;;;;;9.43;5.53;;;15.30;99.90;;;;;;5006863;28;20026;-63
2023/04/28 10:40:45;;;;;;;6.13;4.17;;;15.40;99.90;;;;;;5009999;28;20068;-65
2023/04/28 10:43:12;;;;;;;8.07;4.20;;;15.50;99.90;;;;;;5010784;28;20026;-64
2023/04/28 10:45:47;;;;;;;7.50;4.55;;;15.50;99.90;;;;;;5003129;28;20057;-65
2023/04/28 10:48:14;;;;;;;7.70;4.72;;;15.60;99.90;;;;;;5005745;28;20022;-64
2023/04/28 10:51:03;;;;;;;10.70;5.38;;;15.50;99.90;;;;;;4999829;28;20117;-63
2023/04/28 10:53:44;;;;;;;10.98;6.30;;;15.30;99.90;;;;;;5000421;28;20022;-66
2023/04/28 10:56:11;;;;;;;9.13;5.05;;;15.00;99.90;;;;;;5002524;28;20491;-65
2023/04/28 10:58:45;;;;;;;7.38;5.10;;;14.90;99.90;;;;;;5003677;28;20046;-65
2023/04/28 11:01:33;;;;;;;8.15;5.70;;;14.90;99.90;;;;;;4983107;28;20041;-65
2023/04/28 11:04:09;;;;;;;7.50;5.38;;;15.10;99.90;;;;;;4998564;28;20037;-65
2023/04/28 11:06:38;;;;;;;25.58;12.55;;;15.20;99.90;;;;;;5000275;28;20022;-65
2023/04/28 11:09:13;;;;;;;8.73;5.90;;;15.30;99.90;;;;;;5005700;28;20025;-64
2023/04/28 11:11:58;;;;;;;9.20;4.90;;;15.50;99.90;;;;;;5009844;28;20495;-64
2023/04/28 11:14:23;;;;;;;7.43;5.70;;;15.40;99.90;;;;;;5004815;28;20061;-65
2023/04/28 11:16:50;;;;;;;7.25;5.07;;;15.30;99.90;;;;;;5006648;28;20460;-65
2023/04/28 11:19:27;;;;;;;78.05;44.20;;;15.30;99.90;;;;;;5010038;28;20053;-64
2023/04/28 11:21:57;;;;;;;128.02;70.85;;;15.10;99.90;;;;;;5008590;28;20088;-64
2023/04/28 11:24:24;;;;;;;20.65;13.38;;;15.00;99.90;;;;;;5003639;28;20041;-64
2023/04/28 11:26:51;;;;;;;17.70;11.35;;;15.00;99.90;;;;;;5006919;28;20030;-64
2023/04/28 11:29:17;;;;;;;11.85;9.32;;;15.10;99.90;;;;;;5008818;28;20480;-64
2023/04/28 11:31:52;;;;;;;7.32;5.38;;;15.10;99.90;;;;;;5003582;28;20044;-65
2023/04/28 11:34:20;;;;;;;11.20;5.25;;;15.10;99.90;;;;;;5010046;28;20504;-65
2023/04/28 11:36:46;;;;;;;6.40;4.75;;;15.20;99.90;;;;;;5006592;28;20406;-64
2023/04/28 11:39:12;;;;;;;10.73;5.28;;;15.20;99.90;;;;;;5009148;28;20072;-63
2023/04/28 11:41:39;;;;;;;9.32;5.70;;;15.50;99.90;;;;;;5007155;28;20065;-64
2023/04/28 11:44:16;;;;;;;6.72;4.70;;;15.60;99.90;;;;;;5003092;28;20396;-63
2023/04/28 11:46:50;;;;;;;9.05;5.70;;;16.00;99.90;;;;;;5003956;28;20029;-64
2023/04/28 11:49:17;;;;;;;8.77;4.75;;;16.70;99.90;;;;;;5004953;28;20541;-63
2023/04/28 11:51:45;;;;;;;5.20;4.30;;;17.10;99.90;;;;;;5004142;28;20026;-63
2023/04/28 11:54:13;;;;;;;6.13;3.90;;;17.70;99.90;;;;;;5005792;28;20036;-64
2023/04/28 11:56:40;;;;;;;6.95;4.35;;;18.40;99.90;;;;;;5003291;28;20023;-64
2023/04/28 11:59:11;;;;;;;10.93;4.35;;;18.40;99.90;;;;;;5008575;28;20033;-64
2023/04/28 12:01:48;;;;;;;6.88;3.55;;;18.90;99.90;;;;;;5005725;28;20691;-64
2023/04/28 12:04:25;;;;;;;5.40;4.03;;;19.40;99.90;;;;;;4993948;28;20065;-64
2023/04/28 12:06:58;;;;;;;7.03;3.90;;;19.10;99.90;;;;;;5006962;28;20045;-64
2023/04/28 12:09:24;;;;;;;6.38;3.78;;;19.30;99.90;;;;;;5004933;28;20022;-63
2023/04/28 12:11:58;;;;;;;5.95;4.63;;;19.20;99.90;;;;;;5004582;28;20403;-65
2023/04/28 12:14:24;;;;;;;7.65;3.92;;;19.00;99.90;;;;;;5006939;28;20034;-65
2023/04/28 12:16:51;;;;;;;4.63;4.00;;;19.00;99.90;;;;;;5006455;28;20050;-64
2023/04/28 12:19:18;;;;;;;5.65;4.38;;;19.00;99.90;;;;;;5005349;28;20465;-65
2023/04/28 12:22:04;;;;;;;10.32;6.05;;;18.60;99.90;;;;;;5035829;23;20041;-67
2023/04/28 12:24:31;;;;;;;9.82;4.47;;;18.50;99.90;;;;;;5022079;28;20078;-69
2023/04/28 12:27:15;;;;;;;7.65;4.30;;;18.70;99.90;;;;;;5029379;28;20034;-69
2023/04/28 12:29:42;;;;;;;5.63;4.53;;;18.70;99.90;;;;;;4995116;28;20037;-66
2023/04/28 12:32:09;;;;;;;9.75;7.47;;;19.00;99.90;;;;;;5024361;28;20037;-68
2023/04/28 12:34:36;;;;;;;9.35;5.57;;;18.80;99.90;;;;;;5025452;28;20030;-69
2023/04/28 12:37:04;;;;;;;11.80;5.82;;;18.80;99.90;;;;;;5021637;28;20113;-68
2023/04/28 12:39:31;;;;;;;6.88;4.22;;;19.00;99.90;;;;;;5025952;28;20491;-68
2023/04/28 12:41:58;;;;;;;7.43;5.20;;;19.30;99.90;;;;;;5018998;28;20101;-67
2023/04/28 12:44:24;;;;;;;6.63;5.28;;;19.60;99.90;;;;;;5018753;28;20025;-66
2023/04/28 12:46:51;;;;;;;7.13;4.63;;;19.80;99.90;;;;;;5024192;28;20044;-67